Time;durP1;ratioP1;P1;durP2;ratioP2;P2;SDS_P1;SDS_P2;PMS_P1;PMS_P2;Temp;Humidity;BMP_temperature;BMP_pressure;BME280_temperature;BME280_humidity;BME280_pressure;Samples;Min_cycle;Max_cycle;Signal;HPM_P1;HPM_P2
2022/02/15 00:00:59;;;;;;;3.42;1.85;;;;;;;6.38;100.00;98094.47;5019890;28;20029;-71
2022/02/15 00:03:24;;;;;;;3.83;1.65;;;;;;;6.20;100.00;98090.38;5007155;28;20108;-71
2022/02/15 00:05:50;;;;;;;3.85;2.38;;;;;;;6.18;100.00;98089.75;5009232;28;20041;-71
2022/02/15 00:08:16;;;;;;;4.05;1.80;;;;;;;6.20;100.00;98095.75;5006467;28;20036;-71
2022/02/15 00:10:41;;;;;;;3.63;2.03;;;;;;;6.15;100.00;98088.25;5003896;28;20042;-72
2022/02/15 00:13:06;;;;;;;3.83;1.73;;;;;;;6.25;100.00;98095.19;5007101;28;20913;-71
2022/02/15 00:15:32;;;;;;;3.70;1.83;;;;;;;6.24;100.00;98094.34;5007641;28;20475;-71
2022/02/15 00:17:58;;;;;;;3.22;1.80;;;;;;;6.13;100.00;98074.22;5004580;28;20546;-72
2022/02/15 00:20:23;;;;;;;4.45;2.17;;;;;;;6.32;100.00;98104.13;5007373;28;20037;-71
2022/02/15 00:22:49;;;;;;;3.33;1.90;;;;;;;6.07;100.00;98079.53;5006943;28;20069;-71
2022/02/15 00:25:16;;;;;;;3.85;2.10;;;;;;;6.21;100.00;98104.63;5010066;28;20107;-71
2022/02/15 00:27:42;;;;;;;3.30;1.73;;;;;;;6.00;100.00;98089.34;5007575;28;20038;-71
2022/02/15 00:30:07;;;;;;;6.07;1.77;;;;;;;6.13;100.00;98110.97;5005912;28;20063;-71
2022/02/15 00:32:33;;;;;;;7.05;2.28;;;;;;;6.03;100.00;98111.31;5007218;28;20034;-71
2022/02/15 00:34:58;;;;;;;6.32;2.40;;;;;;;5.88;100.00;98097.91;5009282;28;20067;-71
2022/02/15 00:37:23;;;;;;;7.25;2.67;;;;;;;5.86;100.00;98109.84;5006803;28;20018;-71
2022/02/15 00:39:49;;;;;;;9.68;3.92;;;;;;;5.84;100.00;98107.38;5010306;28;20061;-71
2022/02/15 00:42:14;;;;;;;4.38;2.38;;;;;;;5.74;100.00;98101.47;5008508;28;20026;-71
2022/02/15 00:44:40;;;;;;;5.05;2.10;;;;;;;5.64;100.00;98091.03;5010982;28;20026;-71
2022/02/15 00:47:05;;;;;;;6.03;2.85;;;;;;;5.69;100.00;98103.91;5006838;28;20117;-71
2022/02/15 00:49:31;;;;;;;5.32;2.95;;;;;;;5.53;100.00;98072.75;5006777;28;20033;-71
2022/02/15 00:51:56;;;;;;;2.92;1.88;;;;;;;5.63;100.00;98093.91;5005937;28;20032;-71
2022/02/15 00:54:21;;;;;;;4.38;2.25;;;;;;;5.62;100.00;98102.97;5010071;28;20129;-71
2022/02/15 00:56:47;;;;;;;6.45;2.22;;;;;;;5.61;100.00;98106.69;5005826;28;20061;-72
2022/02/15 00:59:12;;;;;;;7.32;2.67;;;;;;;5.59;100.00;98104.19;5005812;28;20116;-70
2022/02/15 01:01:38;;;;;;;8.50;3.75;;;;;;;5.54;100.00;98105.78;5003978;28;20216;-70
2022/02/15 01:04:04;;;;;;;9.10;3.45;;;;;;;5.35;100.00;98085.75;5010196;28;20614;-70
2022/02/15 01:06:30;;;;;;;5.68;2.83;;;;;;;5.37;100.00;98105.16;5004771;28;20044;-70
2022/02/15 01:08:55;;;;;;;5.53;2.67;;;;;;;5.26;100.00;98093.03;5011114;28;20033;-70
2022/02/15 01:11:21;;;;;;;4.60;2.70;;;;;;;5.28;100.00;98099.06;5006434;28;20080;-70
2022/02/15 01:13:46;;;;;;;4.53;2.70;;;;;;;5.41;100.00;98087.66;5009003;28;20037;-70
2022/02/15 01:16:13;;;;;;;4.75;2.50;;;;;;;5.68;100.00;98112.94;5007008;28;20084;-70
2022/02/15 01:18:38;;;;;;;2.72;2.03;;;;;;;5.72;100.00;98104.34;5009464;28;20026;-70
2022/02/15 01:21:03;;;;;;;3.30;1.63;;;;;;;5.65;100.00;98124.06;5008883;28;20080;-70
2022/02/15 01:23:29;;;;;;;2.78;1.23;;;;;;;5.59;100.00;98114.94;5012864;28;20033;-70
2022/02/15 01:25:54;;;;;;;1.70;1.30;;;;;;;5.37;100.00;98094.41;5023587;28;20037;-70
2022/02/15 01:28:20;;;;;;;3.75;1.52;;;;;;;5.46;100.00;98120.13;5010350;28;20028;-70
2022/02/15 01:30:45;;;;;;;3.35;1.40;;;;;;;5.44;100.00;98101.53;5011098;28;20025;-70
2022/02/15 01:33:11;;;;;;;2.25;1.33;;;;;;;5.67;100.00;98122.84;5014117;28;20129;-72
2022/02/15 01:35:36;;;;;;;3.78;1.20;;;;;;;5.63;100.00;98123.41;5009866;28;20029;-72
2022/02/15 01:38:03;;;;;;;1.58;1.00;;;;;;;5.32;100.00;98089.63;5009270;28;20074;-73
2022/02/15 01:40:29;;;;;;;2.08;1.30;;;;;;;5.26;100.00;98109.97;5008406;28;20034;-72
2022/02/15 01:42:54;;;;;;;3.47;1.52;;;;;;;5.26;100.00;98125.22;5011253;28;20032;-72
2022/02/15 01:45:20;;;;;;;1.83;1.00;;;;;;;5.20;100.00;98125.97;5009816;28;20025;-72
2022/02/15 01:47:47;;;;;;;1.40;1.20;;;;;;;5.17;100.00;98110.28;5009815;28;20033;-73
2022/02/15 01:50:13;;;;;;;2.53;1.40;;;;;;;5.25;100.00;98118.22;5013724;28;20103;-72
2022/02/15 01:52:38;;;;;;;1.90;1.20;;;;;;;5.38;100.00;98121.06;5008934;28;20034;-72
2022/02/15 01:55:06;;;;;;;2.92;1.00;;;;;;;5.43;100.00;98129.38;5010318;28;20030;-72
2022/02/15 01:57:32;;;;;;;3.17;1.38;;;;;;;5.28;100.00;98126.72;5007728;28;20660;-72
2022/02/15 01:59:58;;;;;;;3.08;1.63;;;;;;;5.23;100.00;98126.44;5016072;28;20040;-71
2022/02/15 02:02:26;;;;;;;4.50;2.10;;;;;;;5.15;100.00;98137.25;5011065;28;20140;-72
2022/02/15 02:07:36;;;;;;;4.30;1.67;;;;;;;5.10;100.00;98120.88;5008977;28;20040;-72
2022/02/15 02:10:03;;;;;;;2.80;1.35;;;;;;;5.31;100.00;98138.91;5008931;28;20030;-72
2022/02/15 02:12:28;;;;;;;2.72;1.15;;;;;;;5.26;100.00;98125.22;5010113;28;20635;-72
2022/02/15 02:15:08;;;;;;;2.88;1.55;;;;;;;5.43;100.00;98131.25;5009051;28;20033;-72
2022/02/15 02:17:34;;;;;;;2.03;1.13;;;;;;;5.35;100.00;98112.56;5025249;28;20117;-72
2022/02/15 02:20:00;;;;;;;2.75;1.10;;;;;;;5.27;100.00;98126.91;5007522;28;20467;-72
2022/02/15 02:22:28;;;;;;;1.38;1.02;;;;;;;5.15;100.00;98129.22;5008402;28;20113;-72
2022/02/15 02:24:55;;;;;;;4.07;1.10;;;;;;;5.08;100.00;98098.78;5009314;28;20028;-72
2022/02/15 02:27:24;;;;;;;1.95;1.13;;;;;;;5.17;100.00;98121.00;5015028;28;20029;-72
2022/02/15 02:29:51;;;;;;;1.70;0.98;;;;;;;5.28;100.00;98125.88;5006440;28;20506;-72
2022/02/15 02:32:18;;;;;;;1.75;1.00;;;;;;;5.01;100.00;98095.22;5007386;28;20037;-72
2022/02/15 02:34:43;;;;;;;1.58;0.90;;;;;;;5.12;100.00;98100.09;5009817;28;20475;-72
2022/02/15 02:37:09;;;;;;;1.88;0.90;;;;;;;5.23;100.00;98125.59;5006575;28;20026;-72
2022/02/15 02:39:34;;;;;;;3.33;1.15;;;;;;;5.06;100.00;98103.53;5007859;28;20920;-72
2022/02/15 02:41:59;;;;;;;1.55;1.02;;;;;;;5.09;100.00;98118.41;5008862;28;20025;-72
2022/02/15 02:44:25;;;;;;;2.58;1.00;;;;;;;4.92;100.00;98105.16;5009616;28;20025;-72
2022/02/15 02:46:50;;;;;;;1.58;0.80;;;;;;;4.93;100.00;98117.56;5008924;28;20064;-72
2022/02/15 02:49:15;;;;;;;1.42;0.63;;;;;;;4.86;100.00;98122.00;5008550;28;20030;-72
2022/02/15 02:51:41;;;;;;;2.38;1.23;;;;;;;4.78;100.00;98135.47;5010517;28;20486;-72
2022/02/15 02:54:06;;;;;;;1.63;1.10;;;;;;;4.81;100.00;98111.81;5010554;28;20061;-72
2022/02/15 02:56:31;;;;;;;4.20;1.50;;;;;;;4.97;100.00;98126.06;5007257;28;20022;-72
2022/02/15 02:58:57;;;;;;;2.05;1.13;;;;;;;5.07;100.00;98136.53;5015354;28;20464;-72
2022/02/15 03:01:22;;;;;;;2.30;1.40;;;;;;;5.10;100.00;98138.84;5011220;28;20033;-72
2022/02/15 03:03:47;;;;;;;2.45;1.42;;;;;;;5.14;100.00;98140.13;5008708;28;20053;-72
2022/02/15 03:06:12;;;;;;;2.88;1.58;;;;;;;5.09;100.00;98139.88;5006849;28;20049;-72
2022/02/15 03:08:38;;;;;;;2.47;1.15;;;;;;;5.05;100.00;98137.53;5007744;28;20026;-72
2022/02/15 03:11:03;;;;;;;2.63;1.08;;;;;;;4.92;100.00;98113.22;5008539;28;20029;-72
2022/02/15 03:13:29;;;;;;;2.63;1.50;;;;;;;4.99;100.00;98132.91;5006740;28;21689;-72
2022/02/15 03:15:54;;;;;;;2.92;1.50;;;;;;;5.07;100.00;98152.63;5009027;28;20064;-72
2022/02/15 03:18:19;;;;;;;5.00;1.40;;;;;;;5.07;100.00;98153.44;5006617;28;20033;-72
2022/02/15 03:20:44;;;;;;;2.42;1.40;;;;;;;5.17;100.00;98142.44;5008591;28;20029;-72
2022/02/15 03:23:10;;;;;;;4.18;1.70;;;;;;;5.09;100.00;98145.22;5009020;28;20040;-72
2022/02/15 03:25:35;;;;;;;2.72;1.55;;;;;;;5.03;100.00;98131.53;5008336;28;20025;-72
2022/02/15 03:28:01;;;;;;;3.35;1.70;;;;;;;5.10;100.00;98147.69;5005947;28;20048;-71
2022/02/15 03:30:26;;;;;;;2.42;1.58;;;;;;;5.07;100.00;98134.66;5009053;28;20073;-71
2022/02/15 03:32:51;;;;;;;3.67;1.52;;;;;;;5.18;100.00;98157.50;5007473;28;20037;-71
2022/02/15 03:35:18;;;;;;;2.47;1.60;;;;;;;5.18;100.00;98162.88;5008739;28;20456;-72
2022/02/15 03:37:43;;;;;;;3.35;1.52;;;;;;;5.10;100.00;98161.09;5007299;28;20030;-72
2022/02/15 03:40:09;;;;;;;2.38;1.40;;;;;;;4.95;100.00;98153.06;5013139;28;20041;-72
2022/02/15 03:45:18;;;;;;;3.55;1.63;;;;;;;4.90;100.00;98171.56;5006516;28;20032;-72
2022/02/15 03:47:43;;;;;;;2.95;1.30;;;;;;;4.64;100.00;98138.97;5008950;28;20316;-72
2022/02/15 03:50:10;;;;;;;2.60;1.50;;;;;;;4.98;100.00;98170.66;5008300;28;20069;-72
2022/02/15 03:52:35;;;;;;;4.25;2.20;;;;;;;4.95;100.00;98177.19;5007833;28;20029;-72
2022/02/15 03:55:00;;;;;;;4.90;2.10;;;;;;;4.88;100.00;98173.56;5006056;28;20045;-72
2022/02/15 03:57:26;;;;;;;3.58;1.83;;;;;;;4.95;100.00;98176.34;5007181;28;20458;-72
2022/02/15 03:59:51;;;;;;;2.90;1.77;;;;;;;4.88;100.00;98162.84;5009143;28;20390;-72
2022/02/15 04:02:16;;;;;;;3.67;1.42;;;;;;;4.97;100.00;98180.50;5006083;28;20079;-72
2022/02/15 04:04:41;;;;;;;3.38;1.50;;;;;;;4.96;100.00;98184.22;5007127;28;20029;-72
2022/02/15 04:07:07;;;;;;;2.85;1.40;;;;;;;4.99;100.00;98183.84;5006599;28;20033;-72
2022/02/15 04:09:32;;;;;;;2.67;1.40;;;;;;;5.10;100.00;98187.91;5012628;28;20037;-71
2022/02/15 04:11:57;;;;;;;2.80;1.30;;;;;;;5.20;100.00;98190.34;5008330;28;20034;-72
2022/02/15 04:14:23;;;;;;;5.13;1.65;;;;;;;5.29;99.23;98173.13;5006359;28;20129;-72
2022/02/15 04:16:48;;;;;;;2.65;1.48;;;;;;;5.41;98.20;98194.97;5021911;28;20037;-73
2022/02/15 04:19:14;;;;;;;2.47;1.52;;;;;;;4.61;97.63;98089.25;5025806;28;20124;-77
2022/02/15 04:21:39;;;;;;;5.85;1.77;;;;;;;5.17;98.24;98182.66;5021263;28;20487;-74
2022/02/15 04:24:04;;;;;;;1.55;1.10;;;;;;;5.15;98.98;98185.53;5022272;28;20049;-75
2022/02/15 04:26:30;;;;;;;2.72;1.50;;;;;;;5.19;99.12;98210.97;5026989;28;20534;-71
2022/02/15 04:28:55;;;;;;;3.33;1.55;;;;;;;4.95;99.22;98171.84;5012441;28;20018;-72
2022/02/15 04:31:20;;;;;;;2.13;1.20;;;;;;;5.07;100.00;98209.75;5025153;28;20518;-72
2022/02/15 04:33:46;;;;;;;1.55;1.02;;;;;;;4.85;99.40;98171.28;5036652;28;20084;-72
2022/02/15 04:36:11;;;;;;;4.07;1.42;;;;;;;5.07;99.67;98203.56;5028380;28;20096;-72
2022/02/15 04:38:37;;;;;;;2.78;1.30;;;;;;;5.05;99.12;98206.41;5031845;28;20080;-73
2022/02/15 04:41:03;;;;;;;3.90;1.40;;;;;;;4.89;98.90;98166.38;5015236;28;20022;-72
2022/02/15 04:43:28;;;;;;;2.10;1.25;;;;;;;5.03;99.36;98201.25;5012204;28;20072;-72
2022/02/15 04:45:53;;;;;;;2.70;1.30;;;;;;;5.01;99.24;98191.72;5012131;28;20029;-72
2022/02/15 04:48:19;;;;;;;3.50;1.80;;;;;;;5.07;99.42;98216.97;5025389;28;20065;-74
2022/02/15 04:50:44;;;;;;;2.08;1.33;;;;;;;4.98;99.75;98200.13;5031933;28;20523;-74
2022/02/15 04:53:09;;;;;;;4.40;1.67;;;;;;;5.05;99.21;98223.31;5014782;28;20443;-72
2022/02/15 04:55:35;;;;;;;3.97;1.65;;;;;;;5.05;99.16;98225.16;5036258;28;20021;-74
2022/02/15 04:58:00;;;;;;;4.05;2.25;;;;;;;5.05;99.64;98219.81;5029784;28;20475;-70
2022/02/15 05:00:25;;;;;;;3.75;2.03;;;;;;;5.08;98.51;98211.41;5029510;28;20376;-77
2022/02/15 05:02:51;;;;;;;3.17;1.80;;;;;;;5.15;99.24;98233.78;5019949;28;20018;-71
2022/02/15 05:05:16;;;;;;;4.45;1.90;;;;;;;5.11;99.05;98231.66;5033730;28;20030;-72
2022/02/15 05:07:41;;;;;;;2.83;1.75;;;;;;;4.94;98.91;98205.00;5028298;28;20032;-72
2022/02/15 05:10:07;;;;;;;3.83;1.42;;;;;;;5.05;98.86;98226.00;5045079;28;20091;-71
2022/02/15 05:12:33;;;;;;;2.95;1.50;;;;;;;5.04;98.60;98218.16;5019285;28;20061;-75
2022/02/15 05:14:59;;;;;;;3.35;1.30;;;;;;;5.26;98.60;98244.06;5025957;28;20053;-77
2022/02/15 05:17:26;;;;;;;5.40;2.08;;;;;;;5.18;97.07;98195.88;5023972;28;20387;-75
2022/02/15 05:19:51;;;;;;;3.58;1.55;;;;;;;5.22;97.33;98215.13;5018000;28;20036;-73
2022/02/15 05:22:16;;;;;;;4.03;1.50;;;;;;;5.17;98.06;98222.91;5027380;28;20025;-72
2022/02/15 05:24:42;;;;;;;4.72;1.73;;;;;;;5.18;98.85;98229.91;5036202;28;20376;-72
2022/02/15 05:27:07;;;;;;;4.10;1.30;;;;;;;5.24;98.69;98246.13;5017640;28;20041;-71
2022/02/15 05:29:32;;;;;;;2.88;1.60;;;;;;;4.95;98.82;98208.50;5017085;28;20038;-73
2022/02/15 05:31:57;;;;;;;3.88;2.05;;;;;;;5.19;99.16;98247.69;5019169;28;20025;-73
2022/02/15 05:34:23;;;;;;;2.53;1.40;;;;;;;5.09;98.37;98217.63;5017806;28;20052;-74
2022/02/15 05:36:49;;;;;;;2.13;1.10;;;;;;;5.15;97.94;98231.09;5021526;28;20026;-79
2022/02/15 05:39:16;;;;;;;3.70;1.30;;;;;;;5.17;98.02;98238.97;5030003;28;20025;-71
2022/02/15 05:41:42;;;;;;;2.47;1.30;;;;;;;5.16;98.50;98240.84;5025923;28;20989;-77
2022/02/15 05:44:07;;;;;;;4.18;1.63;;;;;;;5.17;98.67;98237.13;5021651;28;20100;-81
2022/02/15 05:46:32;;;;;;;4.78;1.75;;;;;;;5.10;98.78;98235.34;5015922;28;20033;-72
2022/02/15 05:48:58;;;;;;;4.40;2.10;;;;;;;5.29;99.10;98269.69;5012799;28;20060;-71
2022/02/15 05:51:24;;;;;;;5.43;2.88;;;;;;;5.21;100.00;98261.72;5019432;28;21417;-74
2022/02/15 05:53:52;;;;;;;4.45;2.20;;;;;;;5.21;100.00;98256.34;5017424;28;20025;-81
2022/02/15 05:56:18;;;;;;;4.40;1.63;;;;;;;5.15;100.00;98246.38;5016645;28;20084;-70
2022/02/15 05:58:43;;;;;;;3.38;1.30;;;;;;;5.28;98.38;98265.34;5012360;28;20437;-72
2022/02/15 06:01:09;;;;;;;4.03;1.38;;;;;;;5.31;98.86;98274.88;5013468;28;20037;-72
2022/02/15 06:06:19;;;;;;;2.30;1.20;;;;;;;5.11;99.88;98253.09;5009235;28;20418;-72
2022/02/15 06:08:44;;;;;;;3.08;1.70;;;;;;;4.99;99.60;98237.47;5010522;28;20037;-71
2022/02/15 06:11:09;;;;;;;5.60;2.30;;;;;;;5.03;100.00;98241.47;5011882;28;20052;-70
2022/02/15 06:13:35;;;;;;;4.07;1.42;;;;;;;5.05;100.00;98258.16;5020781;28;20120;-77
2022/02/15 06:16:00;;;;;;;3.53;1.45;;;;;;;4.96;100.00;98253.91;5031595;28;20046;-75
2022/02/15 06:18:26;;;;;;;3.45;1.60;;;;;;;4.92;100.00;98246.41;5022128;28;20018;-77
2022/02/15 06:20:51;;;;;;;2.90;1.23;;;;;;;4.97;100.00;98257.41;5016768;28;20022;-76
2022/02/15 06:23:16;;;;;;;7.75;1.58;;;;;;;5.05;100.00;98282.31;5011867;28;20084;-75
2022/02/15 06:25:42;;;;;;;2.88;1.40;;;;;;;5.15;100.00;98300.00;5016073;28;20029;-68
2022/02/15 06:28:07;;;;;;;4.72;1.90;;;;;;;5.10;99.50;98292.50;5013342;28;20095;-78
2022/02/15 06:30:33;;;;;;;2.38;1.45;;;;;;;5.15;98.63;98275.88;5025388;28;20124;-76
2022/02/15 06:32:58;;;;;;;5.55;1.48;;;;;;;5.05;98.00;98279.63;5011602;28;20030;-76
2022/02/15 06:35:23;;;;;;;2.97;1.30;;;;;;;5.28;97.42;98306.41;5018040;28;20454;-71
2022/02/15 06:37:50;;;;;;;4.45;1.42;;;;;;;5.21;97.70;98291.22;5014089;28;20476;-74
2022/02/15 06:40:18;;;;;;;2.38;1.10;;;;;;;5.39;96.92;98315.84;5014297;28;20053;-72
2022/02/15 06:42:45;;;;;;;5.15;2.10;;;;;;;5.56;95.31;98329.97;5016146;28;20029;-75
2022/02/15 06:45:11;;;;;;;5.90;2.45;;;;;;;5.50;95.61;98325.31;5013488;28;20113;-71
2022/02/15 06:47:36;;;;;;;4.72;2.78;;;;;;;5.54;95.29;98323.13;5008329;28;20036;-68
2022/02/15 06:50:03;;;;;;;6.20;2.60;;;;;;;5.51;94.22;98320.81;5013732;28;20033;-75
2022/02/15 06:52:29;;;;;;;6.28;2.20;;;;;;;5.56;93.78;98329.13;5021496;28;20408;-76
2022/02/15 06:54:55;;;;;;;7.18;2.38;;;;;;;5.53;93.60;98329.47;5015718;28;20029;-79
2022/02/15 06:57:20;;;;;;;4.70;2.03;;;;;;;5.32;94.08;98300.66;5019173;28;20112;-79
2022/02/15 06:59:46;;;;;;;6.30;1.80;;;;;;;5.52;93.32;98338.56;5014050;28;20029;-76
2022/02/15 07:02:11;;;;;;;2.75;1.17;;;;;;;5.63;92.80;98359.56;5015319;28;20041;-74
2022/02/15 07:04:37;;;;;;;5.60;1.95;;;;;;;5.55;93.32;98355.09;5016329;28;20026;-80
2022/02/15 07:07:03;;;;;;;5.82;1.30;;;;;;;5.57;92.69;98345.03;5026247;28;20032;-78
2022/02/15 07:09:28;;;;;;;4.43;1.60;;;;;;;5.43;92.75;98319.84;5020752;28;20040;-76
2022/02/15 07:11:53;;;;;;;8.45;1.65;;;;;;;5.73;92.00;98360.13;5024038;28;20017;-80
2022/02/15 07:14:19;;;;;;;4.35;1.35;;;;;;;5.73;91.58;98352.09;5014458;28;20117;-73
2022/02/15 07:16:44;;;;;;;6.90;1.70;;;;;;;5.83;91.88;98360.72;5012796;28;20503;-74
2022/02/15 07:19:10;;;;;;;2.92;1.45;;;;;;;5.80;93.18;98357.56;5014082;28;20033;-78
2022/02/15 07:21:36;;;;;;;2.72;1.30;;;;;;;5.91;92.54;98392.84;5017213;28;20392;-76
2022/02/15 07:24:02;;;;;;;5.30;1.33;;;;;;;5.88;92.90;98395.91;5018317;28;20033;-76
2022/02/15 07:26:28;;;;;;;3.80;1.70;;;;;;;5.75;93.55;98376.06;5018622;28;22707;-75
2022/02/15 07:28:54;;;;;;;3.40;1.35;;;;;;;5.78;92.88;98368.47;5012751;28;20060;-68
2022/02/15 07:31:19;;;;;;;5.05;1.98;;;;;;;5.96;93.00;98388.81;5011558;28;20025;-73
2022/02/15 07:33:44;;;;;;;4.10;1.90;;;;;;;5.90;92.06;98382.31;5013651;28;20467;-80
2022/02/15 07:36:10;;;;;;;3.00;1.38;;;;;;;5.83;92.43;98376.81;5020721;28;20121;-74
2022/02/15 07:38:35;;;;;;;2.58;1.33;;;;;;;6.01;91.32;98392.59;5008391;28;20018;-76
2022/02/15 07:41:00;;;;;;;6.38;1.80;;;;;;;6.13;90.36;98395.66;5018337;28;20377;-83
2022/02/15 07:43:26;;;;;;;5.10;1.83;;;;;;;6.12;90.22;98394.00;5016271;28;20021;-77
2022/02/15 07:45:52;;;;;;;3.35;1.40;;;;;;;6.30;89.82;98429.38;5020381;28;20041;-72
2022/02/15 07:48:18;;;;;;;5.97;1.45;;;;;;;6.18;91.14;98408.53;5009632;28;20025;-74
2022/02/15 07:50:43;;;;;;;3.15;1.27;;;;;;;6.10;90.91;98396.03;5012910;28;20088;-73
2022/02/15 07:53:08;;;;;;;3.75;1.30;;;;;;;6.34;90.91;98435.22;5010369;28;20073;-72
2022/02/15 07:55:34;;;;;;;2.10;1.00;;;;;;;6.27;92.12;98440.50;5017967;28;20037;-73
2022/02/15 07:57:59;;;;;;;3.22;1.15;;;;;;;6.17;91.28;98413.09;5009957;28;20069;-72
2022/02/15 08:00:25;;;;;;;3.45;1.15;;;;;;;5.92;91.04;98389.16;5015547;28;20040;-72
2022/02/15 08:02:52;;;;;;;3.08;1.00;;;;;;;6.19;91.31;98427.16;5010466;28;20018;-74
2022/02/15 08:05:18;;;;;;;2.75;1.20;;;;;;;6.14;91.39;98422.34;5013500;28;20030;-75
2022/02/15 08:07:48;;;;;;;2.90;1.30;;;;;;;6.19;92.45;98451.34;5018759;28;22486;-74
2022/02/15 08:10:13;;;;;;;3.40;1.10;;;;;;;6.32;91.73;98446.16;5008994;28;20167;-71
2022/02/15 08:12:41;;;;;;;3.92;1.30;;;;;;;6.42;91.60;98447.72;5009838;28;20030;-71
2022/02/15 08:15:08;;;;;;;5.18;1.67;;;;;;;6.25;91.64;98415.66;5005931;28;20041;-72
2022/02/15 08:17:33;;;;;;;4.28;1.75;;;;;;;6.19;91.61;98424.47;5016248;28;20037;-75
2022/02/15 08:19:59;;;;;;;2.95;1.40;;;;;;;6.25;92.98;98422.91;5013441;28;20022;-74
2022/02/15 08:22:24;;;;;;;3.67;1.40;;;;;;;6.28;91.86;98428.72;5013540;28;21361;-79
2022/02/15 08:24:50;;;;;;;4.10;1.40;;;;;;;6.31;91.89;98443.66;5012403;28;20026;-86
2022/02/15 08:27:15;;;;;;;4.50;1.60;;;;;;;6.36;90.56;98434.00;5016958;28;20049;-81
2022/02/15 08:29:40;;;;;;;5.32;1.50;;;;;;;6.31;91.82;98457.94;5026006;28;20468;-81
2022/02/15 08:32:06;;;;;;;4.85;1.35;;;;;;;6.44;92.06;98469.88;5030721;28;20018;-79
2022/02/15 08:34:33;;;;;;;2.78;1.52;;;;;;;6.42;92.01;98461.16;5020999;28;20030;-71
2022/02/15 08:36:58;;;;;;;3.25;1.55;;;;;;;6.55;91.35;98472.13;5014907;28;20057;-72
2022/02/15 08:39:25;;;;;;;3.45;1.20;;;;;;;6.64;91.60;98480.91;5017951;28;20068;-69
2022/02/15 08:41:51;;;;;;;3.03;1.10;;;;;;;6.77;89.85;98481.09;5010832;28;20021;-67
2022/02/15 08:44:16;;;;;;;2.20;1.23;;;;;;;6.83;90.44;98480.31;5019617;28;20029;-74
2022/02/15 08:46:42;;;;;;;3.45;0.90;;;;;;;6.93;88.60;98471.97;5013852;28;20506;-77
2022/02/15 08:49:08;;;;;;;3.45;1.30;;;;;;;6.99;88.02;98471.22;5008786;28;20037;-77
2022/02/15 08:51:37;;;;;;;7.25;1.20;;;;;;;7.07;87.18;98454.13;5011356;28;20026;-77
2022/02/15 08:54:03;;;;;;;8.18;1.50;;;;;;;7.01;86.32;98435.03;5030280;28;20041;-75
2022/02/15 08:56:29;;;;;;;2.40;1.30;;;;;;;7.05;86.66;98445.41;5019496;28;20400;-78
2022/02/15 08:58:54;;;;;;;2.25;1.23;;;;;;;7.13;86.89;98466.84;5011692;28;20022;-77
2022/02/15 09:01:19;;;;;;;4.07;1.50;;;;;;;7.31;86.28;98471.78;5013179;28;20373;-77
2022/02/15 09:03:45;;;;;;;3.30;1.40;;;;;;;7.53;84.46;98469.94;5013329;28;20029;-81
2022/02/15 09:06:10;;;;;;;3.28;1.33;;;;;;;7.57;84.05;98461.31;5021862;28;20120;-80
2022/02/15 09:08:36;;;;;;;3.60;1.52;;;;;;;7.53;84.28;98476.16;5020064;28;20380;-75
2022/02/15 09:11:02;;;;;;;4.40;1.85;;;;;;;7.54;83.90;98479.69;5012132;28;20026;-76
2022/02/15 09:13:27;;;;;;;4.25;1.70;;;;;;;7.58;84.42;98471.03;5023726;28;20026;-70
2022/02/15 09:15:52;;;;;;;4.10;1.77;;;;;;;7.20;85.87;98470.41;5024230;28;20518;-72
2022/02/15 09:18:18;;;;;;;2.80;1.38;;;;;;;7.17;88.10;98479.69;5008755;28;20440;-75
2022/02/15 09:20:43;;;;;;;3.58;1.88;;;;;;;6.98;87.82;98458.81;5019634;28;20029;-75
2022/02/15 09:23:09;;;;;;;2.95;1.80;;;;;;;6.97;86.93;98447.22;5008651;28;20111;-73
2022/02/15 09:25:35;;;;;;;4.97;2.13;;;;;;;7.12;86.79;98457.91;5005715;28;20030;-72
2022/02/15 09:28:01;;;;;;;4.20;2.10;;;;;;;7.29;86.81;98498.91;5002404;28;20038;-71
2022/02/15 09:30:27;;;;;;;5.75;1.98;;;;;;;7.34;86.23;98479.50;5004416;28;20091;-72
2022/02/15 09:32:52;;;;;;;3.83;2.05;;;;;;;7.44;85.44;98477.28;5007602;28;20029;-73
2022/02/15 09:35:18;;;;;;;3.55;2.17;;;;;;;7.66;85.19;98516.69;5010079;28;20399;-70
2022/02/15 09:37:43;;;;;;;3.70;2.00;;;;;;;8.13;83.21;98507.16;5002121;28;20599;-69
2022/02/15 09:40:09;;;;;;;4.57;2.38;;;;;;;7.78;84.37;98498.16;5006253;28;20029;-69
2022/02/15 09:42:36;;;;;;;2.65;1.90;;;;;;;8.37;82.24;98512.31;5008609;28;20030;-70
2022/02/15 09:45:03;;;;;;;3.92;2.30;;;;;;;9.57;76.62;98514.59;5009767;28;20037;-68
2022/02/15 09:47:32;;;;;;;3.92;2.38;;;;;;;9.24;76.11;98509.06;5008392;28;20223;-65
2022/02/15 09:49:59;;;;;;;4.53;2.10;;;;;;;10.36;72.64;98506.78;5008362;28;20041;-67
2022/02/15 09:52:24;;;;;;;3.80;2.33;;;;;;;10.12;71.26;98511.75;5009014;28;20037;-67
2022/02/15 09:54:52;;;;;;;5.22;2.33;;;;;;;9.70;72.96;98494.88;5006057;28;20065;-67
2022/02/15 09:57:18;;;;;;;4.68;2.63;;;;;;;10.05;70.79;98505.50;5005896;28;20506;-67
2022/02/15 09:59:45;;;;;;;3.75;2.75;;;;;;;9.13;72.28;98506.97;5011296;28;20040;-69
2022/02/15 10:02:15;;;;;;;5.50;2.90;;;;;;;9.16;73.57;98507.38;5014571;28;20029;-70
2022/02/15 10:04:41;;;;;;;4.90;2.35;;;;;;;11.36;67.01;98513.59;5009938;28;20084;-69
2022/02/15 10:07:08;;;;;;;4.47;2.30;;;;;;;12.54;61.48;98514.06;5010043;28;20032;-67
2022/02/15 10:09:34;;;;;;;2.95;2.13;;;;;;;13.63;57.59;98485.25;5004878;28;20056;-74
2022/02/15 10:12:04;;;;;;;3.83;2.53;;;;;;;14.44;54.43;98513.69;5012303;28;20057;-76
2022/02/15 10:14:30;;;;;;;3.38;2.10;;;;;;;15.57;50.23;98484.25;5016197;28;20034;-75
2022/02/15 10:16:55;;;;;;;3.45;1.90;;;;;;;13.77;51.82;98499.47;5014217;28;20494;-77
2022/02/15 10:19:26;;;;;;;2.22;1.77;;;;;;;13.64;54.51;98503.19;5013428;28;20026;-75
2022/02/15 10:21:55;;;;;;;2.50;1.80;;;;;;;11.32;58.33;98479.06;5019226;28;20033;-74
2022/02/15 10:24:22;;;;;;;3.05;1.85;;;;;;;11.76;57.63;98502.56;5017734;28;20025;-70
2022/02/15 10:27:03;;;;;;;3.50;2.10;;;;;;;11.71;59.10;98504.22;5018517;28;20045;-76
2022/02/15 10:29:31;;;;;;;3.50;2.20;;;;;;;10.81;62.32;98505.03;5022851;28;20057;-79
2022/02/15 10:31:58;;;;;;;2.93;2.00;;;;;;;10.31;63.29;98529.06;5015991;28;20083;-69
2022/02/15 10:34:25;;;;;;;2.00;1.70;;;;;;;9.90;64.54;98537.31;5016138;28;20498;-70
2022/02/15 10:37:05;;;;;;;4.78;2.05;;;;;;;9.91;65.12;98525.47;5009255;28;20277;-69
2022/02/15 10:39:42;;;;;;;4.40;2.25;;;;;;;9.69;65.54;98547.22;5007476;28;20034;-69
2022/02/15 10:42:09;;;;;;;3.92;1.83;;;;;;;10.05;64.54;98546.88;5012154;28;20033;-68
2022/02/15 10:44:54;;;;;;;6.07;1.88;;;;;;;10.17;64.78;98552.53;5015202;28;20034;-69
2022/02/15 10:47:21;;;;;;;4.55;1.80;;;;;;;10.13;64.02;98545.84;5011618;28;20156;-70
2022/02/15 10:49:47;;;;;;;2.67;1.70;;;;;;;10.39;63.11;98546.94;5011885;28;20025;-69
2022/02/15 10:52:13;;;;;;;3.20;1.55;;;;;;;9.43;63.91;98556.94;5016479;28;21512;-69
2022/02/15 10:54:39;;;;;;;3.25;1.83;;;;;;;9.29;65.69;98563.31;5030793;28;20091;-69
2022/02/15 10:57:09;;;;;;;4.22;1.80;;;;;;;9.38;65.83;98569.38;5013971;28;20029;-71
2022/02/15 10:59:36;;;;;;;3.95;1.75;;;;;;;9.13;66.32;98558.25;5009018;28;20029;-69
2022/02/15 11:02:02;;;;;;;4.47;2.63;;;;;;;9.42;66.73;98571.44;5016616;28;20040;-70
2022/02/15 11:04:31;;;;;;;4.68;2.35;;;;;;;9.10;66.76;98577.53;5019093;28;20023;-70
2022/02/15 11:06:57;;;;;;;2.95;2.03;;;;;;;8.56;68.61;98554.78;5021218;28;20025;-70
2022/02/15 11:09:30;;;;;;;3.50;1.63;;;;;;;8.64;68.87;98572.69;5014103;28;20045;-70
2022/02/15 11:12:16;;;;;;;3.67;1.60;;;;;;;8.58;67.99;98573.47;5008282;28;20483;-68
2022/02/15 11:14:41;;;;;;;8.68;3.60;;;;;;;8.96;67.59;98598.19;5010732;28;20037;-68
2022/02/15 11:17:14;;;;;;;3.22;1.77;;;;;;;9.38;66.15;98596.38;5010117;28;20034;-68
2022/02/15 11:19:41;;;;;;;4.10;2.15;;;;;;;9.73;64.48;98586.31;5007077;28;20045;-68
2022/02/15 11:22:16;;;;;;;5.65;3.03;;;;;;;9.69;64.75;98598.56;5006037;28;20033;-68
2022/02/15 11:24:42;;;;;;;2.97;1.67;;;;;;;9.38;65.90;98588.28;5001682;28;20030;-66
2022/02/15 11:27:15;;;;;;;3.38;2.03;;;;;;;9.53;65.91;98596.22;5007028;28;20044;-66
2022/02/15 11:29:52;;;;;;;5.30;1.92;;;;;;;9.67;65.77;98597.94;5007829;28;20021;-66
2022/02/15 11:32:21;;;;;;;2.58;1.70;;;;;;;9.32;66.98;98603.38;5008387;28;20039;-66
2022/02/15 11:34:48;;;;;;;3.10;1.83;;;;;;;9.08;67.24;98601.19;5007763;28;20767;-66
2022/02/15 11:37:22;;;;;;;6.13;1.67;;;;;;;9.03;65.52;98587.47;5005378;28;20053;-66
2022/02/15 11:40:18;;;;;;;2.97;1.55;;;;;;;8.70;66.11;98571.91;5012268;28;20116;-71
2022/02/15 11:42:49;;;;;;;2.42;1.23;;;;;;;8.46;66.12;98574.03;5018128;28;20517;-75